Time,TemperatureF,DewpointF,PressureIn,WindDirection,WindDirectionDegrees,WindSpeedMPH,WindSpeedGustMPH,Humidity,HourlyPrecipIn,Conditions,Clouds,dailyrainin,SoftwareType,DateUTC
2013-01-04 00:01:00,20.3,1.4,30.03,WSW,246,3.6,3.6,43,0.00,,---,0.00,VWS V14.01,2013-01-04 05:01:00,
2013-01-04 00:02:00,20.3,1.4,30.03,WSW,247,2.7,3.6,43,0.00,,---,0.00,VWS V14.01,2013-01-04 05:02:00,
2013-01-04 00:03:00,20.3,1.4,30.03,WSW,247,2.7,3.1,43,0.00,,---,0.00,VWS V14.01,2013-01-04 05:03:00,
2013-01-04 00:08:00,20.3,1.4,30.00,WSW,247,0.0,4.0,43,0.00,,---,0.00,VWS V14.01,2013-01-04 05:08:00,
2013-01-04 00:13:00,20.5,1.5,30.00,WSW,238,2.7,3.1,43,0.00,,---,0.00,VWS V14.01,2013-01-04 05:13:00,
2013-01-04 00:18:00,21.0,2.5,30.00,West,270,3.6,6.3,44,0.00,,---,0.00,VWS V14.01,2013-01-04 05:18:00,
2013-01-04 00:23:00,20.7,1.7,30.00,West,270,0.0,0.0,43,0.00,,---,0.00,VWS V14.01,2013-01-04 05:23:00,
2013-01-04 00:28:00,20.5,1.5,30.00,West,270,3.1,3.1,43,0.00,,---,0.00,VWS V14.01,2013-01-04 05:28:00,
2013-01-04 00:34:00,20.7,2.2,30.00,West,270,2.7,3.6,44,0.00,,---,0.00,VWS V14.01,2013-01-04 05:34:00,
2013-01-04 00:39:00,21.0,2.5,30.00,West,270,2.7,3.6,44,0.00,,---,0.00,VWS V14.01,2013-01-04 05:39:00,
2013-01-04 00:44:00,21.6,3.0,30.00,West,267,3.1,4.5,44,0.00,,---,0.00,VWS V14.01,2013-01-04 05:44:00,
2013-01-04 00:49:00,22.1,3.5,30.00,WSW,249,3.6,4.9,44,0.00,,---,0.00,VWS V14.01,2013-01-04 05:49:00,
2013-01-04 00:54:00,22.5,3.9,30.00,SW,228,4.0,6.7,44,0.00,,---,0.00,VWS V14.01,2013-01-04 05:54:00,
2013-01-04 00:59:00,22.5,3.4,30.00,West,269,5.4,5.4,43,0.00,,---,0.00,VWS V14.01,2013-01-04 05:59:00,
2013-01-04 01:04:00,22.6,3.5,30.00,WSW,238,4.9,6.9,43,0.00,,---,0.00,VWS V14.01,2013-01-04 06:04:00,
2013-01-04 01:09:00,22.5,3.4,30.00,WSW,237,4.9,5.8,43,0.00,,---,0.00,VWS V14.01,2013-01-04 06:09:00,
2013-01-04 01:14:00,22.6,3.5,30.00,WSW,247,4.9,5.8,43,0.00,,---,0.00,VWS V14.01,2013-01-04 06:14:00,
2013-01-04 01:19:00,22.8,3.7,30.00,West,266,5.4,6.9,43,0.00,,---,0.00,VWS V14.01,2013-01-04 06:19:00,
2013-01-04 01:24:00,23.0,3.8,30.00,WSW,238,5.4,8.3,43,0.00,,---,0.00,VWS V14.01,2013-01-04 06:24:00,
2013-01-04 01:29:00,23.2,3.5,30.00,SW,228,5.8,7.4,42,0.00,,---,0.00,VWS V14.01,2013-01-04 06:29:00,
2013-01-04 01:34:00,23.2,3.5,30.00,SW,227,4.0,8.3,42,0.00,,---,0.00,VWS V14.01,2013-01-04 06:34:00,
2013-01-04 01:39:00,23.5,3.8,30.00,WSW,248,7.4,7.4,42,0.00,,---,0.00,VWS V14.01,2013-01-04 06:39:00,
2013-01-04 01:44:00,23.5,3.8,30.00,WSW,239,4.0,6.3,42,0.00,,---,0.00,VWS V14.01,2013-01-04 06:44:00,
2013-01-04 01:49:00,23.0,2.8,30.00,WSW,241,4.5,4.5,41,0.00,,---,0.00,VWS V14.01,2013-01-04 06:49:00,
2013-01-04 01:54:00,22.8,2.7,30.00,WSW,256,4.5,4.9,41,0.00,,---,0.00,VWS V14.01,2013-01-04 06:54:00,
2013-01-04 01:59:00,22.8,2.7,30.00,WSW,249,4.5,5.4,41,0.00,,---,0.00,VWS V14.01,2013-01-04 06:59:00,
2013-01-04 02:04:00,23.2,3.5,30.00,WSW,258,4.0,4.9,42,0.00,,---,0.00,VWS V14.01,2013-01-04 07:04:00,
2013-01-04 02:09:00,23.5,3.8,30.00,SW,236,3.6,4.0,42,0.00,,---,0.00,VWS V14.01,2013-01-04 07:09:00,
2013-01-04 02:14:00,23.5,3.3,30.00,WSW,250,3.6,6.7,41,0.00,,---,0.00,VWS V14.01,2013-01-04 07:14:00,
2013-01-04 02:19:00,23.2,3.0,30.00,West,259,4.0,6.7,41,0.00,,---,0.00,VWS V14.01,2013-01-04 07:19:00,
2013-01-04 02:24:00,23.0,2.8,30.00,West,266,4.0,4.9,41,0.00,,---,0.00,VWS V14.01,2013-01-04 07:24:00,
2013-01-04 02:29:00,23.0,2.8,30.00,West,266,3.1,4.0,41,0.00,,---,0.00,VWS V14.01,2013-01-04 07:29:00,
2013-01-04 02:34:00,23.2,3.0,30.00,West,266,3.6,4.5,41,0.00,,---,0.00,VWS V14.01,2013-01-04 07:34:00,
2013-01-04 02:39:00,23.0,2.8,30.00,West,280,3.6,4.0,41,0.00,,---,0.00,VWS V14.01,2013-01-04 07:39:00,
2013-01-04 02:44:00,23.2,3.0,30.00,West,276,4.0,4.9,41,0.00,,---,0.00,VWS V14.01,2013-01-04 07:44:00,
2013-01-04 02:49:00,23.4,3.7,30.00,West,276,3.6,4.0,42,0.00,,---,0.00,VWS V14.01,2013-01-04 07:49:00,
2013-01-04 02:54:00,23.5,3.8,30.00,West,276,3.6,4.0,42,0.00,,---,0.00,VWS V14.01,2013-01-04 07:54:00,
2013-01-04 02:59:00,23.5,3.8,30.00,West,276,3.6,4.9,42,0.00,,---,0.00,VWS V14.01,2013-01-04 07:59:00,
2013-01-04 03:04:00,23.7,4.0,30.00,WSW,253,4.0,4.5,42,0.00,,---,0.00,VWS V14.01,2013-01-04 08:04:00,
2013-01-04 03:09:00,23.4,3.7,30.00,SW,229,2.7,5.4,42,0.00,,---,0.00,VWS V14.01,2013-01-04 08:09:00,
2013-01-04 03:14:00,23.2,3.5,30.00,WSW,248,0.0,4.9,42,0.00,,---,0.00,VWS V14.01,2013-01-04 08:14:00,
2013-01-04 03:19:00,23.2,3.5,30.00,WSW,248,3.6,4.0,42,0.00,,---,0.00,VWS V14.01,2013-01-04 08:19:00,
2013-01-04 03:24:00,23.2,3.5,30.00,SW,234,3.1,4.9,42,0.00,,---,0.00,VWS V14.01,2013-01-04 08:24:00,
2013-01-04 03:29:00,23.4,3.7,30.00,SW,234,3.6,4.0,42,0.00,,---,0.00,VWS V14.01,2013-01-04 08:29:00,
2013-01-04 03:34:00,23.7,4.0,30.00,SW,234,4.5,4.5,42,0.00,,---,0.00,VWS V14.01,2013-01-04 08:34:00,
2013-01-04 03:39:00,23.9,4.2,30.00,SW,234,3.6,4.0,42,0.00,,---,0.00,VWS V14.01,2013-01-04 08:39:00,
2013-01-04 03:44:00,24.1,4.3,30.00,SW,234,3.1,4.0,42,0.00,,---,0.00,VWS V14.01,2013-01-04 08:44:00,
2013-01-04 03:49:00,24.3,4.5,30.00,SW,234,3.1,4.5,42,0.00,,---,0.00,VWS V14.01,2013-01-04 08:49:00,
2013-01-04 03:54:00,24.4,4.7,30.00,SW,234,4.0,4.0,42,0.00,,---,0.00,VWS V14.01,2013-01-04 08:54:00,
2013-01-04 03:59:00,24.4,4.7,30.00,SW,234,3.6,4.5,42,0.00,,---,0.00,VWS V14.01,2013-01-04 08:59:00,
2013-01-04 04:04:00,24.4,4.7,30.00,SW,234,3.6,3.6,42,0.00,,---,0.00,VWS V14.01,2013-01-04 09:04:00,
2013-01-04 04:09:00,24.6,4.8,30.00,SW,234,0.0,3.1,42,0.00,,---,0.00,VWS V14.01,2013-01-04 09:09:00,
2013-01-04 04:14:00,24.6,4.8,30.00,SW,234,0.0,0.0,42,0.00,,---,0.00,VWS V14.01,2013-01-04 09:14:00,
2013-01-04 04:19:00,24.3,4.5,30.00,SW,234,0.0,0.0,42,0.00,,---,0.00,VWS V14.01,2013-01-04 09:19:00,
2013-01-04 04:24:00,23.9,4.2,30.00,SW,234,0.0,0.0,42,0.00,,---,0.00,VWS V14.01,2013-01-04 09:24:00,
2013-01-04 04:29:00,23.9,4.2,30.00,SW,234,0.0,3.1,42,0.00,,---,0.00,VWS V14.01,2013-01-04 09:29:00,
2013-01-04 04:34:00,23.9,4.2,30.00,SW,234,0.0,0.0,42,0.00,,---,0.00,VWS V14.01,2013-01-04 09:34:00,
2013-01-04 04:39:00,23.7,4.0,30.00,SW,234,2.7,3.6,42,0.00,,---,0.00,VWS V14.01,2013-01-04 09:39:00,
2013-01-04 04:44:00,23.5,3.8,30.00,SW,234,3.1,3.6,42,0.00,,---,0.00,VWS V14.01,2013-01-04 09:44:00,
2013-01-04 04:49:00,23.7,4.0,30.00,SW,234,3.1,4.0,42,0.00,,---,0.00,VWS V14.01,2013-01-04 09:49:00,
2013-01-04 04:54:00,23.9,4.7,30.00,SW,234,2.7,5.4,43,0.00,,---,0.00,VWS V14.01,2013-01-04 09:54:00,
2013-01-04 04:59:00,24.3,4.5,30.00,SW,234,4.9,4.9,42,0.00,,---,0.00,VWS V14.01,2013-01-04 09:59:00,
2013-01-04 05:04:00,24.1,4.3,30.00,West,268,3.6,5.4,42,0.00,,---,0.00,VWS V14.01,2013-01-04 10:04:00,
2013-01-04 05:09:00,24.4,4.7,30.00,WSW,254,2.7,6.3,42,0.00,,---,0.00,VWS V14.01,2013-01-04 10:09:00,
2013-01-04 05:14:00,25.0,5.7,30.00,SW,234,4.0,4.0,43,0.00,,---,0.00,VWS V14.01,2013-01-04 10:14:00,
2013-01-04 05:19:00,25.7,6.3,30.00,SW,229,4.0,4.5,43,0.00,,---,0.00,VWS V14.01,2013-01-04 10:19:00,
2013-01-04 05:25:00,25.9,6.5,30.00,SW,230,3.6,8.7,43,0.00,,---,0.00,VWS V14.01,2013-01-04 10:25:00,
2013-01-04 05:30:00,25.9,6.5,30.00,SW,229,4.5,5.4,43,0.00,,---,0.00,VWS V14.01,2013-01-04 10:30:00,
2013-01-04 05:35:00,26.1,6.6,30.00,WSW,239,3.6,6.3,43,0.00,,---,0.00,VWS V14.01,2013-01-04 10:35:00,
2013-01-04 05:40:00,26.1,6.6,30.00,WSW,244,0.0,4.0,43,0.00,,---,0.00,VWS V14.01,2013-01-04 10:40:00,
2013-01-04 05:45:00,26.4,7.0,30.00,SW,226,4.9,4.9,43,0.00,,---,0.00,VWS V14.01,2013-01-04 10:45:00,
2013-01-04 05:50:00,26.8,7.3,30.00,WSW,240,4.9,5.4,43,0.00,,---,0.00,VWS V14.01,2013-01-04 10:50:00,
2013-01-04 05:55:00,27.1,7.6,30.00,SW,220,5.8,7.4,43,0.00,,---,0.00,VWS V14.01,2013-01-04 10:55:00,
2013-01-04 06:00:00,27.3,7.8,30.00,WSW,253,4.5,5.4,43,0.00,,---,0.00,VWS V14.01,2013-01-04 11:00:00,
2013-01-04 06:05:00,27.5,7.9,30.00,SW,220,4.5,5.8,43,0.00,,---,0.00,VWS V14.01,2013-01-04 11:05:00,
2013-01-04 06:10:00,27.3,7.8,30.00,SW,226,3.6,7.4,43,0.00,,---,0.00,VWS V14.01,2013-01-04 11:10:00,
2013-01-04 06:15:00,27.1,7.1,30.00,SW,226,3.1,4.9,42,0.00,,---,0.00,VWS V14.01,2013-01-04 11:15:00,
2013-01-04 06:20:00,27.0,6.9,30.00,SW,226,4.0,4.5,42,0.00,,---,0.00,VWS V14.01,2013-01-04 11:20:00,
2013-01-04 06:25:00,26.6,6.6,30.00,WSW,253,4.0,4.9,42,0.00,,---,0.00,VWS V14.01,2013-01-04 11:25:00,
2013-01-04 06:30:00,26.4,6.4,30.00,SW,223,3.6,5.8,42,0.00,,---,0.00,VWS V14.01,2013-01-04 11:30:00,
2013-01-04 06:35:00,26.4,6.4,30.00,SW,223,3.1,6.3,42,0.00,,---,0.00,VWS V14.01,2013-01-04 11:35:00,
2013-01-04 06:40:00,26.4,6.4,30.00,WSW,242,4.9,6.9,42,0.00,,---,0.00,VWS V14.01,2013-01-04 11:40:00,
2013-01-04 06:45:00,26.4,6.4,30.00,SW,224,3.6,5.8,42,0.00,,---,0.00,VWS V14.01,2013-01-04 11:45:00,
2013-01-04 06:50:00,26.4,6.4,30.00,SW,232,4.0,5.8,42,0.00,,---,0.00,VWS V14.01,2013-01-04 11:50:00,
2013-01-04 06:55:00,26.6,6.6,30.00,SW,224,4.9,6.3,42,0.00,,---,0.00,VWS V14.01,2013-01-04 11:55:00,
2013-01-04 07:00:00,26.6,6.6,30.00,SW,224,3.6,5.8,42,0.00,,---,0.00,VWS V14.01,2013-01-04 12:00:00,
2013-01-04 07:05:00,26.8,6.8,30.00,SW,218,4.0,4.9,42,0.00,,---,0.00,VWS V14.01,2013-01-04 12:05:00,
2013-01-04 07:10:00,27.0,7.5,30.00,SW,220,3.6,5.8,43,0.00,,---,0.00,VWS V14.01,2013-01-04 12:10:00,
2013-01-04 07:15:00,27.1,7.6,30.00,SW,220,4.0,5.8,43,0.00,,---,0.00,VWS V14.01,2013-01-04 12:15:00,
2013-01-04 07:20:00,27.3,7.8,30.00,SW,219,4.0,4.9,43,0.00,,---,0.00,VWS V14.01,2013-01-04 12:20:00,
2013-01-04 07:25:00,27.5,7.9,30.00,WSW,243,3.6,7.4,43,0.00,,---,0.00,VWS V14.01,2013-01-04 12:25:00,
2013-01-04 07:30:00,27.7,7.6,30.00,SW,214,4.5,6.3,42,0.00,,---,0.00,VWS V14.01,2013-01-04 12:30:00,
2013-01-04 07:35:00,27.9,7.8,30.00,SSW,213,3.1,5.4,42,0.00,,---,0.00,VWS V14.01,2013-01-04 12:35:00,
2013-01-04 07:40:00,28.0,7.9,30.00,SSW,212,2.7,5.8,42,0.00,,---,0.00,VWS V14.01,2013-01-04 12:40:00,
2013-01-04 07:45:00,28.0,7.9,30.00,WSW,242,2.7,6.3,42,0.00,,---,0.00,VWS V14.01,2013-01-04 12:45:00,
2013-01-04 07:50:00,28.2,8.1,30.00,West,264,3.6,6.9,42,0.00,,---,0.00,VWS V14.01,2013-01-04 12:50:00,
2013-01-04 07:55:00,28.2,8.1,30.03,WNW,285,10.5,10.5,42,0.00,,---,0.00,VWS V14.01,2013-01-04 12:55:00,
2013-01-04 08:00:00,28.6,8.4,30.03,SW,236,5.8,7.4,42,0.00,,---,0.00,VWS V14.01,2013-01-04 13:00:00,
2013-01-04 08:05:00,28.8,8.6,30.03,WSW,249,9.2,10.5,42,0.00,,---,0.00,VWS V14.01,2013-01-04 13:05:00,
2013-01-04 08:10:00,28.9,8.7,30.00,West,276,6.9,7.8,42,0.00,,---,0.00,VWS V14.01,2013-01-04 13:10:00,
2013-01-04 08:15:00,29.1,8.9,30.00,SW,234,7.4,7.4,42,0.00,,---,0.00,VWS V14.01,2013-01-04 13:15:00,
2013-01-04 08:20:00,29.3,9.1,30.00,WSW,253,8.7,8.7,42,0.00,,---,0.00,VWS V14.01,2013-01-04 13:20:00,
2013-01-04 08:25:00,29.5,8.7,30.00,WSW,239,5.4,8.3,41,0.00,,---,0.00,VWS V14.01,2013-01-04 13:25:00,
2013-01-04 08:30:00,29.7,8.9,30.00,WNW,288,4.5,8.3,41,0.00,,---,0.00,VWS V14.01,2013-01-04 13:30:00,
2013-01-04 08:35:00,29.7,8.9,30.00,WSW,255,4.9,8.7,41,0.00,,---,0.00,VWS V14.01,2013-01-04 13:35:00,
2013-01-04 08:40:00,30.0,9.2,30.00,West,270,3.6,6.7,41,0.00,,---,0.00,VWS V14.01,2013-01-04 13:40:00,
2013-01-04 08:46:00,30.2,9.4,30.00,WNW,298,2.7,6.7,41,0.00,,---,0.00,VWS V14.01,2013-01-04 13:46:00,
2013-01-04 08:51:00,30.4,9.5,30.03,WSW,257,5.8,8.7,41,0.00,,---,0.00,VWS V14.01,2013-01-04 13:51:00,
2013-01-04 08:56:00,30.4,9.5,30.03,SSW,207,5.4,10.1,41,0.00,,---,0.00,VWS V14.01,2013-01-04 13:56:00,
2013-01-04 09:01:00,30.6,9.7,30.03,WSW,242,4.9,10.5,41,0.00,,---,0.00,VWS V14.01,2013-01-04 14:01:00,
2013-01-04 09:06:00,30.6,9.7,30.00,WSW,246,4.0,10.1,41,0.00,,---,0.00,VWS V14.01,2013-01-04 14:06:00,
2013-01-04 09:11:00,30.7,9.8,30.00,SSW,200,5.8,10.1,41,0.00,,---,0.00,VWS V14.01,2013-01-04 14:11:00,
2013-01-04 09:16:00,30.9,10.0,30.00,WSW,243,5.4,10.5,41,0.00,,---,0.00,VWS V14.01,2013-01-04 14:16:00,
2013-01-04 09:21:00,31.1,10.2,30.00,West,261,5.8,10.5,41,0.00,,---,0.00,VWS V14.01,2013-01-04 14:21:00,
2013-01-04 09:26:00,31.3,9.8,30.00,WSW,257,3.6,7.4,40,0.00,,---,0.00,VWS V14.01,2013-01-04 14:26:00,
2013-01-04 09:31:00,31.5,9.9,30.00,West,262,5.8,8.7,40,0.00,,---,0.00,VWS V14.01,2013-01-04 14:31:00,
2013-01-04 09:36:00,31.6,10.1,30.00,WSW,258,7.4,10.5,40,0.00,,---,0.00,VWS V14.01,2013-01-04 14:36:00,
2013-01-04 09:41:00,31.6,9.5,30.00,SSW,194,5.4,11.0,39,0.00,,---,0.00,VWS V14.01,2013-01-04 14:41:00,
2013-01-04 09:46:00,31.8,9.7,30.00,WSW,257,6.7,9.6,39,0.00,,---,0.00,VWS V14.01,2013-01-04 14:46:00,
2013-01-04 09:51:00,32.2,9.4,30.00,SW,231,4.0,9.6,38,0.00,,---,0.00,VWS V14.01,2013-01-04 14:51:00,
2013-01-04 09:56:00,32.4,9.6,30.00,West,277,6.9,9.6,38,0.00,,---,0.00,VWS V14.01,2013-01-04 14:56:00,
2013-01-04 10:01:00,32.5,9.2,30.00,WSW,247,7.4,10.1,37,0.00,,---,0.00,VWS V14.01,2013-01-04 15:01:00,
2013-01-04 10:06:00,33.1,9.1,30.00,WSW,243,6.3,9.6,36,0.00,,---,0.00,VWS V14.01,2013-01-04 15:06:00,
2013-01-04 10:11:00,33.3,8.6,30.00,NW,317,4.9,11.2,35,0.00,,---,0.00,VWS V14.01,2013-01-04 15:11:00,
2013-01-04 10:16:00,33.6,8.9,30.00,WSW,253,12.1,12.1,35,0.00,,---,0.00,VWS V14.01,2013-01-04 15:16:00,
2013-01-04 10:21:00,33.8,8.4,30.00,West,265,8.3,11.6,34,0.00,,---,0.00,VWS V14.01,2013-01-04 15:21:00,
2013-01-04 10:26:00,33.8,8.4,30.00,WSW,254,4.5,8.7,34,0.00,,---,0.00,VWS V14.01,2013-01-04 15:26:00,
2013-01-04 10:31:00,34.0,7.9,30.00,West,263,4.5,13.0,33,0.00,,---,0.00,VWS V14.01,2013-01-04 15:31:00,
2013-01-04 10:36:00,34.3,8.2,30.00,WNW,289,5.8,12.5,33,0.00,,---,0.00,VWS V14.01,2013-01-04 15:36:00,
2013-01-04 10:41:00,34.5,8.4,30.00,WSW,254,6.9,11.2,33,0.00,,---,0.00,VWS V14.01,2013-01-04 15:41:00,
2013-01-04 10:46:00,34.5,7.7,30.00,WSW,248,4.0,12.1,32,0.00,,---,0.00,VWS V14.01,2013-01-04 15:46:00,
2013-01-04 10:51:00,34.5,7.7,30.00,SW,235,10.1,12.1,32,0.00,,---,0.00,VWS V14.01,2013-01-04 15:51:00,
2013-01-04 10:56:00,34.7,7.9,30.00,SW,225,4.9,11.2,32,0.00,,---,0.00,VWS V14.01,2013-01-04 15:56:00,
2013-01-04 11:01:00,34.9,7.3,30.00,SW,223,11.6,14.8,31,0.00,,---,0.00,VWS V14.01,2013-01-04 16:01:00,
2013-01-04 11:06:00,35.1,7.5,29.97,WSW,245,10.1,11.0,31,0.00,,---,0.00,VWS V14.01,2013-01-04 16:06:00,
2013-01-04 11:11:00,35.2,7.7,29.97,SW,232,10.5,12.1,31,0.00,,---,0.00,VWS V14.01,2013-01-04 16:11:00,
2013-01-04 11:16:00,35.4,7.1,29.97,West,271,10.5,17.2,30,0.00,,---,0.00,VWS V14.01,2013-01-04 16:16:00,
2013-01-04 11:21:00,35.4,7.1,29.97,WNW,284,14.8,18.1,30,0.00,,---,0.00,VWS V14.01,2013-01-04 16:21:00,
2013-01-04 11:26:00,35.8,7.4,29.97,NW,321,9.6,13.9,30,0.00,,---,0.00,VWS V14.01,2013-01-04 16:26:00,
2013-01-04 11:31:00,36.0,7.6,29.97,WNW,299,7.8,16.8,30,0.00,,---,0.00,VWS V14.01,2013-01-04 16:31:00,
2013-01-04 11:36:00,36.3,7.9,29.97,SW,224,12.1,15.9,30,0.00,,---,0.00,VWS V14.01,2013-01-04 16:36:00,
2013-01-04 11:41:00,36.7,7.4,29.97,West,274,10.5,18.6,29,0.00,,---,0.00,VWS V14.01,2013-01-04 16:41:00,
2013-01-04 11:46:00,36.9,7.6,29.97,West,272,9.2,15.9,29,0.00,,---,0.00,VWS V14.01,2013-01-04 16:46:00,
2013-01-04 11:51:00,36.3,7.9,29.94,NW,308,7.4,17.7,30,0.00,,---,0.00,VWS V14.01,2013-01-04 16:51:00,
2013-01-04 11:56:00,36.3,7.9,29.94,SW,228,15.4,15.4,30,0.00,,---,0.00,VWS V14.01,2013-01-04 16:56:00,
2013-01-04 12:01:00,36.0,6.8,29.94,SW,230,10.5,13.9,29,0.00,,---,0.00,VWS V14.01,2013-01-04 17:01:00,
2013-01-04 12:06:00,36.3,7.9,29.94,WSW,239,12.1,17.7,30,0.00,,---,0.00,VWS V14.01,2013-01-04 17:06:00,
2013-01-04 12:11:00,36.3,7.9,29.94,West,270,9.2,11.6,30,0.00,,---,0.00,VWS V14.01,2013-01-04 17:11:00,
2013-01-04 12:16:00,37.0,7.8,29.94,WNW,295,5.8,13.9,29,0.00,,---,0.00,VWS V14.01,2013-01-04 17:16:00,
2013-01-04 12:21:00,37.6,8.2,29.94,SW,231,5.8,10.1,29,0.00,,---,0.00,VWS V14.01,2013-01-04 17:21:00,
2013-01-04 12:27:00,37.9,8.5,29.94,WSW,240,10.1,15.9,29,0.00,,---,0.00,VWS V14.01,2013-01-04 17:27:00,
2013-01-04 12:31:00,37.9,8.5,29.94,SW,225,5.4,14.3,29,0.00,,---,0.00,VWS V14.01,2013-01-04 17:31:00,
2013-01-04 12:36:00,38.1,8.7,29.91,West,275,9.2,14.8,29,0.00,,---,0.00,VWS V14.01,2013-01-04 17:36:00,
2013-01-04 12:41:00,37.0,5.3,29.91,NW,315,8.7,15.2,26,0.00,,---,0.00,VWS V14.01,2013-01-04 17:41:00,
2013-01-04 12:46:00,36.9,5.2,29.91,SW,232,15.4,17.7,26,0.00,,---,0.00,VWS V14.01,2013-01-04 17:46:00,
2013-01-04 12:52:00,36.9,5.2,29.91,WSW,247,7.8,14.8,26,0.00,,---,0.00,VWS V14.01,2013-01-04 17:52:00,
2013-01-04 12:57:00,36.9,5.2,29.91,WSW,249,6.9,15.4,26,0.00,,---,0.00,VWS V14.01,2013-01-04 17:57:00,
2013-01-04 13:02:00,36.9,5.2,29.91,WNW,295,11.0,15.4,26,0.00,,---,0.00,VWS V14.01,2013-01-04 18:02:00,
2013-01-04 13:07:00,36.9,5.2,29.91,NW,308,6.9,14.8,26,0.00,,---,0.00,VWS V14.01,2013-01-04 18:07:00,
2013-01-04 13:12:00,37.0,5.3,29.91,West,267,11.2,16.8,26,0.00,,---,0.00,VWS V14.01,2013-01-04 18:12:00,
2013-01-04 13:17:00,37.4,5.7,29.91,NNW,332,3.6,13.0,26,0.00,,---,0.00,VWS V14.01,2013-01-04 18:17:00,
2013-01-04 13:22:00,37.6,5.8,29.91,WNW,293,6.7,15.4,26,0.00,,---,0.00,VWS V14.01,2013-01-04 18:22:00,
2013-01-04 13:27:00,37.8,6.0,29.91,WNW,285,6.7,11.6,26,0.00,,---,0.00,VWS V14.01,2013-01-04 18:27:00,
2013-01-04 13:32:00,37.9,6.1,29.91,WSW,245,6.9,15.2,26,0.00,,---,0.00,VWS V14.01,2013-01-04 18:32:00,
2013-01-04 13:37:00,37.9,6.1,29.91,SW,233,15.9,15.9,26,0.00,,---,0.00,VWS V14.01,2013-01-04 18:37:00,
2013-01-04 13:42:00,37.4,3.9,29.91,West,267,4.9,17.7,24,0.00,,---,0.00,VWS V14.01,2013-01-04 18:42:00,
2013-01-04 13:47:00,37.4,5.7,29.91,WSW,243,12.1,17.2,26,0.00,,---,0.00,VWS V14.01,2013-01-04 18:47:00,
2013-01-04 13:52:00,37.4,5.7,29.91,West,278,7.8,14.3,26,0.00,,---,0.00,VWS V14.01,2013-01-04 18:52:00,
2013-01-04 13:57:00,37.8,6.0,29.91,WNW,288,6.7,14.8,26,0.00,,---,0.00,VWS V14.01,2013-01-04 18:57:00,
2013-01-04 14:02:00,38.1,6.3,29.91,NW,321,4.5,11.6,26,0.00,,---,0.00,VWS V14.01,2013-01-04 19:02:00,
2013-01-04 14:07:00,38.5,6.6,29.88,WSW,258,3.6,11.2,26,0.00,,---,0.00,VWS V14.01,2013-01-04 19:07:00,
2013-01-04 14:12:00,38.3,3.8,29.88,WSW,242,12.5,14.8,23,0.00,,---,0.00,VWS V14.01,2013-01-04 19:12:00,
2013-01-04 14:17:00,37.9,4.4,29.88,SSW,213,6.9,13.4,24,0.00,,---,0.00,VWS V14.01,2013-01-04 19:17:00,
2013-01-04 14:22:00,37.8,4.2,29.88,WSW,240,8.7,14.3,24,0.00,,---,0.00,VWS V14.01,2013-01-04 19:22:00,
2013-01-04 14:27:00,37.9,4.4,29.88,WSW,248,7.8,14.3,24,0.00,,---,0.00,VWS V14.01,2013-01-04 19:27:00,
2013-01-04 14:32:00,37.9,4.4,29.88,West,277,4.0,12.5,24,0.00,,---,0.00,VWS V14.01,2013-01-04 19:32:00,
2013-01-04 14:37:00,37.9,4.4,29.88,WSW,255,13.4,13.4,24,0.00,,---,0.00,VWS V14.01,2013-01-04 19:37:00,
2013-01-04 14:42:00,37.9,4.4,29.88,West,268,10.5,17.2,24,0.00,,---,0.00,VWS V14.01,2013-01-04 19:42:00,
2013-01-04 14:47:00,37.8,4.2,29.88,SW,236,6.9,15.9,24,0.00,,---,0.00,VWS V14.01,2013-01-04 19:47:00,
2013-01-04 14:52:00,37.6,4.1,29.88,WNW,287,8.7,12.5,24,0.00,,---,0.00,VWS V14.01,2013-01-04 19:52:00,
2013-01-04 14:57:00,37.8,4.2,29.88,WSW,237,4.9,11.6,24,0.00,,---,0.00,VWS V14.01,2013-01-04 19:57:00,
2013-01-04 15:02:00,37.6,4.1,29.88,West,276,6.9,15.9,24,0.00,,---,0.00,VWS V14.01,2013-01-04 20:02:00,
2013-01-04 15:07:00,37.4,3.9,29.88,WSW,244,5.8,13.4,24,0.00,,---,0.00,VWS V14.01,2013-01-04 20:07:00,
2013-01-04 15:12:00,37.4,3.9,29.88,WNW,290,4.9,13.4,24,0.00,,---,0.00,VWS V14.01,2013-01-04 20:12:00,
2013-01-04 15:17:00,37.4,3.9,29.88,WNW,283,6.3,11.0,24,0.00,,---,0.00,VWS V14.01,2013-01-04 20:17:00,
2013-01-04 15:22:00,37.2,3.8,29.88,WNW,300,5.8,12.5,24,0.00,,---,0.00,VWS V14.01,2013-01-04 20:22:00,
2013-01-04 15:27:00,37.2,3.8,29.88,West,262,5.8,13.9,24,0.00,,---,0.00,VWS V14.01,2013-01-04 20:27:00,
2013-01-04 15:32:00,37.0,3.6,29.88,WSW,258,7.4,10.5,24,0.00,,---,0.00,VWS V14.01,2013-01-04 20:32:00,
2013-01-04 15:37:00,36.9,3.5,29.88,WNW,292,7.8,12.5,24,0.00,,---,0.00,VWS V14.01,2013-01-04 20:37:00,
2013-01-04 15:42:00,36.7,3.3,29.88,WSW,258,3.6,13.4,24,0.00,,---,0.00,VWS V14.01,2013-01-04 20:42:00,
2013-01-04 15:47:00,36.7,3.3,29.88,WSW,258,7.4,15.4,24,0.00,,---,0.00,VWS V14.01,2013-01-04 20:47:00,
2013-01-04 15:52:00,36.5,3.2,29.88,WNW,292,5.4,11.2,24,0.00,,---,0.00,VWS V14.01,2013-01-04 20:52:00,
2013-01-04 15:57:00,36.3,3.0,29.88,West,264,8.3,11.6,24,0.00,,---,0.00,VWS V14.01,2013-01-04 20:57:00,
2013-01-04 16:02:00,35.8,2.5,29.88,West,273,7.8,10.1,24,0.00,,---,0.00,VWS V14.01,2013-01-04 21:02:00,
2013-01-04 16:07:00,35.4,2.2,29.88,West,259,3.6,11.6,24,0.00,,---,0.00,VWS V14.01,2013-01-04 21:07:00,
2013-01-04 16:12:00,35.1,1.9,29.88,WNW,288,7.4,13.0,24,0.00,,---,0.00,VWS V14.01,2013-01-04 21:12:00,
2013-01-04 16:17:00,34.9,1.8,29.88,WNW,283,8.3,10.5,24,0.00,,---,0.00,VWS V14.01,2013-01-04 21:17:00,
2013-01-04 16:22:00,34.5,2.3,29.88,WSW,246,4.5,8.7,25,0.00,,---,0.00,VWS V14.01,2013-01-04 21:22:00,
2013-01-04 16:27:00,34.3,2.2,29.88,WNW,287,8.3,13.4,25,0.00,,---,0.00,VWS V14.01,2013-01-04 21:27:00,
2013-01-04 16:32:00,34.2,2.0,29.88,SW,227,6.9,11.6,25,0.00,,---,0.00,VWS V14.01,2013-01-04 21:32:00,
2013-01-04 16:37:00,34.0,1.9,29.88,WSW,248,6.7,12.5,25,0.00,,---,0.00,VWS V14.01,2013-01-04 21:37:00,
2013-01-04 16:42:00,33.8,3.4,29.88,WSW,252,5.8,5.8,27,0.00,,---,0.00,VWS V14.01,2013-01-04 21:42:00,
2013-01-04 16:47:00,33.8,3.4,29.88,NW,305,0.0,17.2,27,0.00,,---,0.00,VWS V14.01,2013-01-04 21:47:00,
2013-01-04 16:52:00,33.6,3.2,29.88,NNW,327,4.0,10.1,27,0.00,,---,0.00,VWS V14.01,2013-01-04 21:52:00,
2013-01-04 16:57:00,33.6,3.2,29.88,West,266,4.9,9.2,27,0.00,,---,0.00,VWS V14.01,2013-01-04 21:57:00,
2013-01-04 17:02:00,33.4,3.1,29.88,SW,229,5.4,11.2,27,0.00,,---,0.00,VWS V14.01,2013-01-04 22:02:00,
2013-01-04 17:07:00,33.3,2.9,29.88,WSW,244,6.7,6.7,27,0.00,,---,0.00,VWS V14.01,2013-01-04 22:07:00,
2013-01-04 17:12:00,33.3,2.9,29.88,WSW,247,4.9,5.4,27,0.00,,---,0.00,VWS V14.01,2013-01-04 22:12:00,
2013-01-04 17:17:00,33.1,2.8,29.88,West,270,4.5,4.5,27,0.00,,---,0.00,VWS V14.01,2013-01-04 22:17:00,
2013-01-04 17:22:00,32.9,3.4,29.88,WSW,241,6.7,8.7,28,0.00,,---,0.00,VWS V14.01,2013-01-04 22:22:00,
2013-01-04 17:27:00,32.9,3.4,29.88,SW,232,4.9,4.9,28,0.00,,---,0.00,VWS V14.01,2013-01-04 22:27:00,
2013-01-04 17:32:00,32.7,3.2,29.88,West,259,5.8,6.3,28,0.00,,---,0.00,VWS V14.01,2013-01-04 22:32:00,
2013-01-04 17:37:00,32.5,3.1,29.91,West,262,2.7,3.1,28,0.00,,---,0.00,VWS V14.01,2013-01-04 22:37:00,
2013-01-04 17:42:00,32.5,4.6,29.91,SW,230,4.0,6.3,30,0.00,,---,0.00,VWS V14.01,2013-01-04 22:42:00,
2013-01-04 17:47:00,32.2,4.2,29.91,West,267,3.6,3.6,30,0.00,,---,0.00,VWS V14.01,2013-01-04 22:47:00,
2013-01-04 17:52:00,32.0,4.1,29.88,WSW,253,4.9,6.3,30,0.00,,---,0.00,VWS V14.01,2013-01-04 22:52:00,
2013-01-04 17:57:00,32.0,4.1,29.88,WSW,250,4.5,4.5,30,0.00,,---,0.00,VWS V14.01,2013-01-04 22:57:00,
2013-01-04 18:02:00,31.8,3.9,29.88,West,265,3.6,4.9,30,0.00,,---,0.00,VWS V14.01,2013-01-04 23:02:00,
2013-01-04 18:07:00,31.6,3.8,29.91,WSW,253,4.9,10.1,30,0.00,,---,0.00,VWS V14.01,2013-01-04 23:07:00,
2013-01-04 18:12:00,31.6,3.8,29.91,WSW,256,5.8,8.3,30,0.00,,---,0.00,VWS V14.01,2013-01-04 23:12:00,
2013-01-04 18:17:00,31.8,3.9,29.91,WSW,258,6.9,7.4,30,0.00,,---,0.00,VWS V14.01,2013-01-04 23:17:00,
2013-01-04 18:22:00,31.8,3.9,29.91,WSW,242,4.5,5.4,30,0.00,,---,0.00,VWS V14.01,2013-01-04 23:22:00,
2013-01-04 18:27:00,31.6,3.8,29.91,WSW,244,3.1,5.8,30,0.00,,---,0.00,VWS V14.01,2013-01-04 23:27:00,
2013-01-04 18:32:00,31.6,3.8,29.91,SW,228,3.6,6.9,30,0.00,,---,0.00,VWS V14.01,2013-01-04 23:32:00,
2013-01-04 18:37:00,31.5,3.6,29.91,SW,226,5.4,6.7,30,0.00,,---,0.00,VWS V14.01,2013-01-04 23:37:00,
2013-01-04 18:42:00,31.5,3.6,29.91,WSW,238,3.6,5.4,30,0.00,,---,0.00,VWS V14.01,2013-01-04 23:42:00,
2013-01-04 18:48:00,31.3,3.5,29.91,SW,226,4.0,4.9,30,0.00,,---,0.00,VWS V14.01,2013-01-04 23:48:00,
2013-01-04 18:53:00,31.3,3.5,29.91,West,260,3.1,3.1,30,0.00,,---,0.00,VWS V14.01,2013-01-04 23:53:00,
2013-01-04 18:58:00,31.3,3.5,29.91,West,262,3.6,4.5,30,0.00,,---,0.00,VWS V14.01,2013-01-04 23:58:00,
2013-01-04 19:03:00,31.1,4.0,29.91,WSW,245,3.6,4.9,31,0.00,,---,0.00,VWS V14.01,2013-01-05 00:03:00,
2013-01-04 19:08:00,30.9,3.8,29.91,West,266,4.0,4.5,31,0.00,,---,0.00,VWS V14.01,2013-01-05 00:08:00,
2013-01-04 19:13:00,30.7,3.7,29.91,WSW,238,3.6,4.9,31,0.00,,---,0.00,VWS V14.01,2013-01-05 00:13:00,
2013-01-04 19:18:00,30.7,3.7,29.91,SW,233,3.6,5.4,31,0.00,,---,0.00,VWS V14.01,2013-01-05 00:18:00,
2013-01-04 19:23:00,30.7,3.7,29.91,SW,220,5.4,5.4,31,0.00,,---,0.00,VWS V14.01,2013-01-05 00:23:00,
2013-01-04 19:28:00,30.7,3.7,29.91,SSW,211,8.3,8.3,31,0.00,,---,0.00,VWS V14.01,2013-01-05 00:28:00,
2013-01-04 19:33:00,30.7,3.7,29.91,WSW,254,6.3,7.4,31,0.00,,---,0.00,VWS V14.01,2013-01-05 00:33:00,
2013-01-04 19:38:00,30.7,3.7,29.91,SW,223,5.8,6.3,31,0.00,,---,0.00,VWS V14.01,2013-01-05 00:38:00,
2013-01-04 19:43:00,30.7,3.7,29.91,WSW,238,4.9,7.8,31,0.00,,---,0.00,VWS V14.01,2013-01-05 00:43:00,
2013-01-04 19:48:00,30.9,3.8,29.91,West,269,6.7,6.9,31,0.00,,---,0.00,VWS V14.01,2013-01-05 00:48:00,
2013-01-04 19:53:00,31.1,4.0,29.91,West,273,4.9,6.9,31,0.00,,---,0.00,VWS V14.01,2013-01-05 00:53:00,
2013-01-04 19:58:00,31.1,4.0,29.91,WSW,257,4.0,7.8,31,0.00,,---,0.00,VWS V14.01,2013-01-05 00:58:00,
2013-01-04 20:03:00,31.1,4.0,29.91,West,277,6.7,6.7,31,0.00,,---,0.00,VWS V14.01,2013-01-05 01:03:00,
2013-01-04 20:08:00,30.9,3.8,29.91,WSW,246,5.8,6.3,31,0.00,,---,0.00,VWS V14.01,2013-01-05 01:08:00,
2013-01-04 20:13:00,30.7,3.7,29.91,West,277,4.9,7.4,31,0.00,,---,0.00,VWS V14.01,2013-01-05 01:13:00,
2013-01-04 20:18:00,30.9,3.8,29.91,WSW,254,4.9,6.9,31,0.00,,---,0.00,VWS V14.01,2013-01-05 01:18:00,
2013-01-04 20:23:00,30.7,3.7,29.91,SSW,211,5.8,7.4,31,0.00,,---,0.00,VWS V14.01,2013-01-05 01:23:00,
2013-01-04 20:28:00,30.9,3.8,29.91,WNW,283,3.6,7.8,31,0.00,,---,0.00,VWS V14.01,2013-01-05 01:28:00,
2013-01-04 20:33:00,30.9,3.8,29.91,West,276,4.9,8.7,31,0.00,,---,0.00,VWS V14.01,2013-01-05 01:33:00,
2013-01-04 20:38:00,31.1,4.0,29.91,WSW,257,3.6,8.3,31,0.00,,---,0.00,VWS V14.01,2013-01-05 01:38:00,
2013-01-04 20:43:00,30.9,3.8,29.91,SW,231,5.4,5.8,31,0.00,,---,0.00,VWS V14.01,2013-01-05 01:43:00,
2013-01-04 20:48:00,30.7,3.7,29.91,WSW,248,4.5,7.4,31,0.00,,---,0.00,VWS V14.01,2013-01-05 01:48:00,
2013-01-04 20:53:00,30.7,3.7,29.91,NW,317,4.5,7.4,31,0.00,,---,0.00,VWS V14.01,2013-01-05 01:53:00,
2013-01-04 20:58:00,30.7,3.7,29.91,West,271,4.0,6.9,31,0.00,,---,0.00,VWS V14.01,2013-01-05 01:58:00,
2013-01-04 21:03:00,30.6,3.5,29.91,WNW,282,6.9,8.3,31,0.00,,---,0.00,VWS V14.01,2013-01-05 02:03:00,
2013-01-04 21:08:00,30.7,3.7,29.91,West,268,6.3,9.6,31,0.00,,---,0.00,VWS V14.01,2013-01-05 02:08:00,
2013-01-04 21:13:00,30.7,3.7,29.91,WNW,287,4.5,5.4,31,0.00,,---,0.00,VWS V14.01,2013-01-05 02:13:00,
2013-01-04 21:18:00,30.7,3.7,29.91,SW,236,6.3,10.5,31,0.00,,---,0.00,VWS V14.01,2013-01-05 02:18:00,
2013-01-04 21:23:00,30.7,3.7,29.91,WSW,240,5.4,9.2,31,0.00,,---,0.00,VWS V14.01,2013-01-05 02:23:00,
2013-01-04 21:28:00,30.9,3.8,29.91,SSW,204,6.7,7.4,31,0.00,,---,0.00,VWS V14.01,2013-01-05 02:28:00,
2013-01-04 21:33:00,30.7,3.7,29.91,WSW,257,6.9,11.0,31,0.00,,---,0.00,VWS V14.01,2013-01-05 02:33:00,
2013-01-04 21:38:00,30.7,3.7,29.91,WSW,256,5.4,10.1,31,0.00,,---,0.00,VWS V14.01,2013-01-05 02:38:00,
2013-01-04 21:43:00,30.9,3.8,29.91,West,281,4.9,6.3,31,0.00,,---,0.00,VWS V14.01,2013-01-05 02:43:00,
2013-01-04 21:48:00,30.9,3.8,29.91,WNW,291,6.7,7.4,31,0.00,,---,0.00,VWS V14.01,2013-01-05 02:48:00,
2013-01-04 21:53:00,30.9,3.8,29.91,West,267,2.7,7.8,31,0.00,,---,0.00,VWS V14.01,2013-01-05 02:53:00,
2013-01-04 21:58:00,31.1,4.0,29.91,WSW,255,4.5,13.0,31,0.00,,---,0.00,VWS V14.01,2013-01-05 02:58:00,
2013-01-04 22:03:00,31.1,3.3,29.91,WSW,252,0.0,8.3,30,0.00,,---,0.00,VWS V14.01,2013-01-05 03:03:00,
2013-01-04 22:08:00,31.1,3.3,29.91,WNW,301,3.1,4.5,30,0.00,,---,0.00,VWS V14.01,2013-01-05 03:08:00,
2013-01-04 22:13:00,30.7,3.0,29.91,SW,215,3.6,5.8,30,0.00,,---,0.00,VWS V14.01,2013-01-05 03:13:00,
2013-01-04 22:18:00,30.7,3.0,29.91,SW,217,4.5,5.4,30,0.00,,---,0.00,VWS V14.01,2013-01-05 03:18:00,
2013-01-04 22:24:00,30.6,2.8,29.94,WSW,238,4.5,4.9,30,0.00,,---,0.00,VWS V14.01,2013-01-05 03:24:00,
2013-01-04 22:29:00,30.4,2.7,29.94,WSW,256,4.0,4.0,30,0.00,,---,0.00,VWS V14.01,2013-01-05 03:29:00,
2013-01-04 22:34:00,30.4,2.7,29.94,WSW,249,3.6,6.9,30,0.00,,---,0.00,VWS V14.01,2013-01-05 03:34:00,
2013-01-04 22:39:00,30.4,2.7,29.91,WNW,302,7.4,9.6,30,0.00,,---,0.00,VWS V14.01,2013-01-05 03:39:00,
2013-01-04 22:44:00,30.4,2.7,29.91,WSW,249,4.9,5.8,30,0.00,,---,0.00,VWS V14.01,2013-01-05 03:44:00,
2013-01-04 22:49:00,30.4,2.7,29.91,West,266,13.9,13.9,30,0.00,,---,0.00,VWS V14.01,2013-01-05 03:49:00,
2013-01-04 22:54:00,30.6,2.8,29.94,WNW,284,4.0,6.9,30,0.00,,---,0.00,VWS V14.01,2013-01-05 03:54:00,
2013-01-04 22:59:00,30.6,2.8,29.94,WNW,283,6.9,11.6,30,0.00,,---,0.00,VWS V14.01,2013-01-05 03:59:00,
2013-01-04 23:04:00,30.4,2.7,29.94,WSW,237,6.9,8.7,30,0.00,,---,0.00,VWS V14.01,2013-01-05 04:04:00,
2013-01-04 23:09:00,30.2,2.5,29.94,NW,309,0.0,6.3,30,0.00,,---,0.00,VWS V14.01,2013-01-05 04:09:00,
2013-01-04 23:14:00,30.0,2.3,29.94,WNW,299,3.1,6.3,30,0.00,,---,0.00,VWS V14.01,2013-01-05 04:14:00,
2013-01-04 23:19:00,29.8,2.2,29.94,NW,324,5.8,8.7,30,0.00,,---,0.00,VWS V14.01,2013-01-05 04:19:00,
2013-01-04 23:24:00,30.2,2.5,29.94,West,270,5.8,7.4,30,0.00,,---,0.00,VWS V14.01,2013-01-05 04:24:00,
2013-01-04 23:29:00,30.4,2.7,29.94,WNW,298,3.1,9.2,30,0.00,,---,0.00,VWS V14.01,2013-01-05 04:29:00,
2013-01-04 23:34:00,30.6,2.8,29.94,NW,324,10.1,15.9,30,0.00,,---,0.00,VWS V14.01,2013-01-05 04:34:00,
2013-01-04 23:39:00,30.7,3.0,29.94,NW,325,6.3,7.4,30,0.00,,---,0.00,VWS V14.01,2013-01-05 04:39:00,
2013-01-04 23:44:00,30.7,3.0,29.94,WNW,296,7.8,10.5,30,0.00,,---,0.00,VWS V14.01,2013-01-05 04:44:00,
2013-01-04 23:49:00,30.7,3.0,29.94,WNW,293,3.1,10.1,30,0.00,,---,0.00,VWS V14.01,2013-01-05 04:49:00,
2013-01-04 23:54:00,30.7,3.0,29.94,West,275,6.3,13.0,30,0.00,,---,0.00,VWS V14.01,2013-01-05 04:54:00,
2013-01-04 23:59:00,30.4,2.7,29.94,West,269,7.8,10.1,30,0.00,,---,0.00,VWS V14.01,2013-01-05 04:59:00,